Mituhiro5 — JD2850 — position and weather

sailwx.info

Track history (hours):
 
Tides and Currents Weather Stations Pressure Air Temp Water Temp Dewpoint Dewpoint Depression Visibility Wind Speed Wind Dir Waves Ship Positions

Mituhiro5

Last reported at 2018-Feb-24 08:56 UTC. Time now 2018-Feb-24 09:58 UTC.
Position N 35°35' E 140°03'.

Length 68 m; draft 3.6 m.

Type: Cargo ship. MMSI: 431000818.

Date/timePositionNaut miles runAvg speedWind from/ knotsBaromVisibWave heightAir tempDewpointWater temp
2018-Feb-24 08:56N 35°35' E 140°03'2 5.0
2018-Feb-24 08:30N 35°37' E 140°05'0 0.0
2018-Feb-24 07:55N 35°37' E 140°05'0 0.0
2018-Feb-24 07:28N 35°37' E 140°05'0 0.0
2018-Feb-24 06:58N 35°37' E 140°05'0 0.0
2018-Feb-24 06:25N 35°37' E 140°05'0 0.0
2018-Feb-24 05:43N 35°37' E 140°05'0 1.2
2018-Feb-24 05:30N 35°37' E 140°05'13 3.6
2018-Feb-24 01:47N 35°29' E 139°52'311.4
2018-Feb-24 01:30N 35°27' E 139°49'611.2
2018-Feb-24 01:00N 35°22' E 139°45'1210.7
2018-Feb-23 23:55N 35°10' E 139°47'410.6
2018-Feb-23 23:30N 35°06' E 139°45'242 9.2
2018-Feb-22 21:11N 34°13' E 134°59'212.0
2018-Feb-22 21:00N 34°15' E 134°59'611.8
2018-Feb-22 20:30N 34°21' E 134°59'612.1
2018-Feb-22 20:00N 34°26' E 135°01'611.8
2018-Feb-22 19:30N 34°32' E 135°02'5 9.5
2018-Feb-22 19:00N 34°37' E 135°01'611.1
2018-Feb-22 18:30N 34°37' E 134°54'611.2
2018-Feb-22 17:59N 34°40' E 134°48'  
2018-Feb-20 13:31N 34°38' E 134°52'015.6
2018-Feb-20 13:30N 34°38' E 134°52'713.1
2018-Feb-20 13:00N 34°38' E 134°60'611.6
2018-Feb-20 12:30N 34°34' E 135°05'612.0
2018-Feb-20 12:00N 34°28' E 135°03'611.8
2018-Feb-20 11:30N 34°22' E 135°02'611.7
2018-Feb-20 11:00N 34°17' E 134°59'1111.1
2018-Feb-20 10:02N 34°06' E 135°00'211.4
2018-Feb-20 09:53N 34°04' E 135°00'100 6.1
2018-Feb-19 17:39N 34°54' E 136°46'212.2
2018-Feb-19 17:30N 34°55' E 136°46'611.9
2018-Feb-19 17:00N 35°00' E 136°50'3 7.0
2018-Feb-19 16:30N 35°03' E 136°53'0 0.0
2018-Feb-19 15:58N 35°03' E 136°53'0 0.0
2018-Feb-19 15:28N 35°03' E 136°53'0 0.0
2018-Feb-19 14:58N 35°03' E 136°53'0 0.0
2018-Feb-19 14:28N 35°03' E 136°53'0 0.0
2018-Feb-19 13:46N 35°03' E 136°53'0 0.0
2018-Feb-19 13:25N 35°03' E 136°53'0 0.0
2018-Feb-19 12:58N 35°03' E 136°53'0 0.0
2018-Feb-19 12:28N 35°03' E 136°53'0 0.0
2018-Feb-19 11:58N 35°03' E 136°53'0 0.0
2018-Feb-19 11:25N 35°03' E 136°53'0 0.0
2018-Feb-19 10:55N 35°03' E 136°53'0 0.0
2018-Feb-19 10:28N 35°03' E 136°53'0 0.0
2018-Feb-19 09:58N 35°03' E 136°53'0 0.7
2018-Feb-19 09:31N 35°03' E 136°53'2 4.6
2018-Feb-19 09:00N 35°03' E 136°50'0 0.1
2018-Feb-19 08:21N 35°03' E 136°50'0 0.0
2018-Feb-19 08:00N 35°03' E 136°50'0 0.0
2018-Feb-19 07:27N 35°03' E 136°50'0 0.0
2018-Feb-19 06:57N 35°03' E 136°50'0 0.0
2018-Feb-19 06:30N 35°03' E 136°50'0 0.1
2018-Feb-19 06:00N 35°03' E 136°50'0 0.1
2018-Feb-19 05:30N 35°03' E 136°50'0 0.0
2018-Feb-19 05:00N 35°03' E 136°50'0 0.0
2018-Feb-19 04:30N 35°03' E 136°50'0 0.0
2018-Feb-19 04:00N 35°03' E 136°50'0 0.0
2018-Feb-19 03:30N 35°03' E 136°50'0 0.0
2018-Feb-19 03:00N 35°03' E 136°50'0 0.1
2018-Feb-19 02:30N 35°03' E 136°50'0 0.1
2018-Feb-19 01:57N 35°03' E 136°50'0 0.2
2018-Feb-19 01:25N 35°03' E 136°50'0 0.0
2018-Feb-19 01:00N 35°03' E 136°50'0 0.0
2018-Feb-19 00:30N 35°03' E 136°50'0 0.0
2018-Feb-19 00:00N 35°03' E 136°50'0 0.0
2018-Feb-18 23:30N 35°03' E 136°50'0 0.0
2018-Feb-18 23:00N 35°03' E 136°50'1 2.8
2018-Feb-18 22:30N 35°03' E 136°51'2 4.7
2018-Feb-18 22:00N 35°05' E 136°52'0 0.0
2018-Feb-18 21:28N 35°05' E 136°52'0 0.0
2018-Feb-18 20:58N 35°05' E 136°52'0 0.0
2018-Feb-18 20:28N 35°05' E 136°52'0 0.0
2018-Feb-18 19:58N 35°05' E 136°52'0 0.0
2018-Feb-18 19:28N 35°05' E 136°52'0 0.0
2018-Feb-18 18:58N 35°05' E 136°52'0 0.0
2018-Feb-18 18:28N 35°05' E 136°52'0 0.0
2018-Feb-18 17:58N 35°05' E 136°52'0 0.0
2018-Feb-18 17:28N 35°05' E 136°52'0 0.0
2018-Feb-18 16:58N 35°05' E 136°52'0 0.0
2018-Feb-18 16:28N 35°05' E 136°52'0 0.0
2018-Feb-18 15:58N 35°05' E 136°52'0 0.0
2018-Feb-18 15:28N 35°05' E 136°52'0 0.0
2018-Feb-18 14:58N 35°05' E 136°52'0 0.0
2018-Feb-18 14:28N 35°05' E 136°52'0 0.0
2018-Feb-18 13:58N 35°05' E 136°52'0 0.0
2018-Feb-18 13:28N 35°05' E 136°52'0 0.0
2018-Feb-18 12:58N 35°05' E 136°52'0 0.0
2018-Feb-18 12:28N 35°05' E 136°52'0 0.0
2018-Feb-18 11:58N 35°05' E 136°52'0 0.0
2018-Feb-18 11:28N 35°05' E 136°52'0 0.0
2018-Feb-18 10:58N 35°05' E 136°52'0 0.0
2018-Feb-18 10:28N 35°05' E 136°52'0 0.0
2018-Feb-18 09:58N 35°05' E 136°52'0 0.0
2018-Feb-18 09:28N 35°05' E 136°52'0 0.0
2018-Feb-18 08:58N 35°05' E 136°52'0 0.0
2018-Feb-18 08:28N 35°05' E 136°52'0 0.0
2018-Feb-18 07:55N 35°05' E 136°52'0 0.0
2018-Feb-18 07:28N 35°05' E 136°52'0 0.0
2018-Feb-18 06:58N 35°05' E 136°52'0 0.0
2018-Feb-18 06:28N 35°05' E 136°52'0 0.0
2018-Feb-18 05:55N 35°05' E 136°52'0 0.0
2018-Feb-18 05:28N 35°05' E 136°52'0 0.0
2018-Feb-18 04:58N 35°05' E 136°52'0 0.0
2018-Feb-18 04:28N 35°05' E 136°52'0 0.0
2018-Feb-18 03:58N 35°05' E 136°52'0 0.0
2018-Feb-18 03:28N 35°05' E 136°52'0 0.0
2018-Feb-18 02:58N 35°05' E 136°52'0 0.0
2018-Feb-18 02:28N 35°05' E 136°52'0 0.0
2018-Feb-18 01:58N 35°05' E 136°52'0 0.0
2018-Feb-18 01:28N 35°05' E 136°52'0 0.0
2018-Feb-18 00:58N 35°05' E 136°52'0 0.0
2018-Feb-18 00:28N 35°05' E 136°52'0 0.0
2018-Feb-17 23:58N 35°05' E 136°52'0 0.0
2018-Feb-17 23:28N 35°05' E 136°52'0 0.0
2018-Feb-17 22:58N 35°05' E 136°52'0 0.7
2018-Feb-17 22:30N 35°05' E 136°53'0 0.0
2018-Feb-17 22:01N 35°05' E 136°53'0 0.0
2018-Feb-17 21:31N 35°05' E 136°53'0 0.0
2018-Feb-17 20:58N 35°05' E 136°53'2 4.4
2018-Feb-17 20:30N 35°03' E 136°52'611.2
2018-Feb-17 20:00N 34°58' E 136°48'510.2
2018-Feb-17 19:30N 34°53' E 136°47'268 7.9
2018-Feb-16 09:32N 33°49' E 131°31'111.1
2018-Feb-16 09:29N 33°49' E 131°31'510.7
2018-Feb-16 09:00N 33°50' E 131°24'510.7
2018-Feb-16 08:30N 33°52' E 131°18'510.8
2018-Feb-16 08:00N 33°53' E 131°12'611.1
2018-Feb-16 07:29N 33°56' E 131°06'611.7
2018-Feb-16 07:00N 33°59' E 131°00'612.7
2018-Feb-16 06:30N 33°54' E 130°55'2 3.1
2018-Feb-16 06:00N 33°54' E 130°53'0 0.0
2018-Feb-16 05:28N 33°54' E 130°53'0 0.0
2018-Feb-16 04:49N 33°54' E 130°53'0 0.0
2018-Feb-16 04:28N 33°54' E 130°53'0 0.0
2018-Feb-16 03:58N 33°54' E 130°53'0 0.0
2018-Feb-16 03:28N 33°54' E 130°53'0 0.0
2018-Feb-16 02:58N 33°54' E 130°53'0 0.0
2018-Feb-16 02:28N 33°54' E 130°53'0 0.0
2018-Feb-16 01:58N 33°54' E 130°53'0 0.0
2018-Feb-16 01:28N 33°54' E 130°53'0 0.0
2018-Feb-16 00:58N 33°54' E 130°53'0 0.0
2018-Feb-16 00:22N 33°54' E 130°53'0 0.0
2018-Feb-15 23:55N 33°54' E 130°53'0 0.0
2018-Feb-15 23:19N 33°54' E 130°53'0 0.0
2018-Feb-15 22:58N 33°54' E 130°53'0 0.0
2018-Feb-15 22:28N 33°54' E 130°53'0 0.0
2018-Feb-15 21:58N 33°54' E 130°53'0 0.0
2018-Feb-15 21:28N 33°54' E 130°53'0 0.0
2018-Feb-15 20:58N 33°54' E 130°53'0 0.0
2018-Feb-15 20:28N 33°54' E 130°53'0 0.0
2018-Feb-15 19:58N 33°54' E 130°53'0 0.0
2018-Feb-15 19:28N 33°54' E 130°53'0 0.0
2018-Feb-15 18:58N 33°54' E 130°53'0 0.0
2018-Feb-15 18:22N 33°54' E 130°53'0 0.0
2018-Feb-15 17:58N 33°54' E 130°53'0 0.0
2018-Feb-15 17:28N 33°54' E 130°53'0 0.0
2018-Feb-15 16:52N 33°54' E 130°53'0 0.0
2018-Feb-15 16:28N 33°54' E 130°53'0 0.0
2018-Feb-15 15:58N 33°54' E 130°53'0 0.0
2018-Feb-15 15:28N 33°54' E 130°53'0 0.0
2018-Feb-15 14:58N 33°54' E 130°53'0 0.0
2018-Feb-15 14:28N 33°54' E 130°53'0 0.0
2018-Feb-15 13:58N 33°54' E 130°53'0 0.0
2018-Feb-15 13:25N 33°54' E 130°53'0 0.0
2018-Feb-15 12:55N 33°54' E 130°53'0 0.0
2018-Feb-15 12:25N 33°54' E 130°53'0 0.0
2018-Feb-15 11:55N 33°54' E 130°53'0 0.0
2018-Feb-15 11:25N 33°54' E 130°53'0 0.0
2018-Feb-15 10:55N 33°54' E 130°53'0 0.0
2018-Feb-15 10:28N 33°54' E 130°53'0 0.0
2018-Feb-15 09:58N 33°54' E 130°53'0 0.0
2018-Feb-15 09:28N 33°54' E 130°53'0 0.0
2018-Feb-15 08:55N 33°54' E 130°53'0 0.0
2018-Feb-15 08:22N 33°54' E 130°53'0 0.0
2018-Feb-15 07:58N 33°54' E 130°53'0 0.0
2018-Feb-15 07:28N 33°54' E 130°53'0 0.0
2018-Feb-15 06:58N 33°54' E 130°53'0 0.0
2018-Feb-15 06:22N 33°54' E 130°53'0 0.0
2018-Feb-15 05:58N 33°54' E 130°53'0 0.0
2018-Feb-15 05:28N 33°54' E 130°53'0 0.0
2018-Feb-15 04:52N 33°54' E 130°53'0 0.0
2018-Feb-15 04:28N 33°54' E 130°53'0 0.0
2018-Feb-15 03:58N 33°54' E 130°53'0 0.0
2018-Feb-15 03:28N 33°54' E 130°53'0 0.0
2018-Feb-15 02:58N 33°54' E 130°53'0 0.0
2018-Feb-15 02:28N 33°54' E 130°53'0 0.0
2018-Feb-15 01:55N 33°54' E 130°53'0 0.0
2018-Feb-15 01:28N 33°54' E 130°53'0 0.0
2018-Feb-15 00:55N 33°54' E 130°53'0 0.0
2018-Feb-15 00:28N 33°54' E 130°53'0 0.0
2018-Feb-14 23:58N 33°54' E 130°53'0 0.0
2018-Feb-14 23:28N 33°54' E 130°53'0 0.0
2018-Feb-14 22:58N 33°54' E 130°53'0 0.0
2018-Feb-14 22:28N 33°54' E 130°53'0 0.0
2018-Feb-14 21:58N 33°54' E 130°53'0 0.0
2018-Feb-14 21:28N 33°54' E 130°53'0 0.0
2018-Feb-14 20:58N 33°54' E 130°53'0 0.0
2018-Feb-14 20:28N 33°54' E 130°53'0 0.0
2018-Feb-14 19:58N 33°54' E 130°53'0 0.0
2018-Feb-14 19:28N 33°54' E 130°53'0 0.0
2018-Feb-14 18:58N 33°54' E 130°53'0 0.0
2018-Feb-14 18:28N 33°54' E 130°53'0 0.0
2018-Feb-14 17:58N 33°54' E 130°53'0 0.0
2018-Feb-14 17:25N 33°54' E 130°53'0 0.0
2018-Feb-14 16:58N 33°54' E 130°53'0 0.0
2018-Feb-14 16:28N 33°54' E 130°53'0 0.0
2018-Feb-14 15:58N 33°54' E 130°53'0 0.0
2018-Feb-14 15:28N 33°54' E 130°53'0 0.0
2018-Feb-14 14:55N 33°54' E 130°53'0 0.1
2018-Feb-14 14:28N 33°54' E 130°53'0 0.0
2018-Feb-14 13:58N 33°54' E 130°53'0 0.0
2018-Feb-14 13:28N 33°54' E 130°53'0 0.0
2018-Feb-14 12:58N 33°54' E 130°53'0 0.0
2018-Feb-14 12:28N 33°54' E 130°53'0 0.0
2018-Feb-14 11:58N 33°54' E 130°53'0 0.0
2018-Feb-14 11:28N 33°54' E 130°53'0 0.0
2018-Feb-14 10:58N 33°54' E 130°53'0 0.1
2018-Feb-14 10:28N 33°54' E 130°53'0 0.0
2018-Feb-14 09:58N 33°54' E 130°53'0 0.1
2018-Feb-14 09:28N 33°54' E 130°53'0 0.0
2018-Feb-14 08:58N 33°54' E 130°53'  
Track history (hours):
 
Tides and Currents Weather Stations Pressure Air Temp Water Temp Dewpoint Dewpoint Depression Visibility Wind Speed Wind Dir Waves Ship Positions

Mituhiro5

Last reported at 2018-Feb-24 08:56 UTC. Time now 2018-Feb-24 09:58 UTC.
Position N 35°35' E 140°03'.

Length 68 m; draft 3.6 m.

Type: Cargo ship. MMSI: 431000818.

Date/timePositionNaut miles runAvg speedWind from/ knotsBaromVisibWave heightAir tempDewpointWater temp
2018-Feb-24 08:56N 35°35' E 140°03'2 5.0
2018-Feb-24 08:30N 35°37' E 140°05'0 0.0
2018-Feb-24 07:55N 35°37' E 140°05'0 0.0
2018-Feb-24 07:28N 35°37' E 140°05'0 0.0
2018-Feb-24 06:58N 35°37' E 140°05'0 0.0
2018-Feb-24 06:25N 35°37' E 140°05'0 0.0
2018-Feb-24 05:43N 35°37' E 140°05'0 1.2
2018-Feb-24 05:30N 35°37' E 140°05'13 3.6
2018-Feb-24 01:47N 35°29' E 139°52'311.4
2018-Feb-24 01:30N 35°27' E 139°49'611.2
2018-Feb-24 01:00N 35°22' E 139°45'1210.7
2018-Feb-23 23:55N 35°10' E 139°47'410.6
2018-Feb-23 23:30N 35°06' E 139°45'242 9.2
2018-Feb-22 21:11N 34°13' E 134°59'212.0
2018-Feb-22 21:00N 34°15' E 134°59'611.8
2018-Feb-22 20:30N 34°21' E 134°59'612.1
2018-Feb-22 20:00N 34°26' E 135°01'611.8
2018-Feb-22 19:30N 34°32' E 135°02'5 9.5
2018-Feb-22 19:00N 34°37' E 135°01'611.1
2018-Feb-22 18:30N 34°37' E 134°54'611.2
2018-Feb-22 17:59N 34°40' E 134°48'  
2018-Feb-20 13:31N 34°38' E 134°52'015.6
2018-Feb-20 13:30N 34°38' E 134°52'713.1
2018-Feb-20 13:00N 34°38' E 134°60'611.6
2018-Feb-20 12:30N 34°34' E 135°05'612.0
2018-Feb-20 12:00N 34°28' E 135°03'611.8
2018-Feb-20 11:30N 34°22' E 135°02'611.7
2018-Feb-20 11:00N 34°17' E 134°59'1111.1
2018-Feb-20 10:02N 34°06' E 135°00'211.4
2018-Feb-20 09:53N 34°04' E 135°00'100 6.1
2018-Feb-19 17:39N 34°54' E 136°46'212.2
2018-Feb-19 17:30N 34°55' E 136°46'611.9
2018-Feb-19 17:00N 35°00' E 136°50'3 7.0
2018-Feb-19 16:30N 35°03' E 136°53'0 0.0
2018-Feb-19 15:58N 35°03' E 136°53'0 0.0
2018-Feb-19 15:28N 35°03' E 136°53'0 0.0
2018-Feb-19 14:58N 35°03' E 136°53'0 0.0
2018-Feb-19 14:28N 35°03' E 136°53'0 0.0
2018-Feb-19 13:46N 35°03' E 136°53'0 0.0
2018-Feb-19 13:25N 35°03' E 136°53'0 0.0
2018-Feb-19 12:58N 35°03' E 136°53'0 0.0
2018-Feb-19 12:28N 35°03' E 136°53'0 0.0
2018-Feb-19 11:58N 35°03' E 136°53'0 0.0
2018-Feb-19 11:25N 35°03' E 136°53'0 0.0
2018-Feb-19 10:55N 35°03' E 136°53'0 0.0
2018-Feb-19 10:28N 35°03' E 136°53'0 0.0
2018-Feb-19 09:58N 35°03' E 136°53'0 0.7
2018-Feb-19 09:31N 35°03' E 136°53'2 4.6
2018-Feb-19 09:00N 35°03' E 136°50'0 0.1
2018-Feb-19 08:21N 35°03' E 136°50'0 0.0
2018-Feb-19 08:00N 35°03' E 136°50'0 0.0
2018-Feb-19 07:27N 35°03' E 136°50'0 0.0
2018-Feb-19 06:57N 35°03' E 136°50'0 0.0
2018-Feb-19 06:30N 35°03' E 136°50'0 0.1
2018-Feb-19 06:00N 35°03' E 136°50'0 0.1
2018-Feb-19 05:30N 35°03' E 136°50'0 0.0
2018-Feb-19 05:00N 35°03' E 136°50'0 0.0
2018-Feb-19 04:30N 35°03' E 136°50'0 0.0
2018-Feb-19 04:00N 35°03' E 136°50'0 0.0
2018-Feb-19 03:30N 35°03' E 136°50'0 0.0
2018-Feb-19 03:00N 35°03' E 136°50'0 0.1
2018-Feb-19 02:30N 35°03' E 136°50'0 0.1
2018-Feb-19 01:57N 35°03' E 136°50'0 0.2
2018-Feb-19 01:25N 35°03' E 136°50'0 0.0
2018-Feb-19 01:00N 35°03' E 136°50'0 0.0
2018-Feb-19 00:30N 35°03' E 136°50'0 0.0
2018-Feb-19 00:00N 35°03' E 136°50'0 0.0
2018-Feb-18 23:30N 35°03' E 136°50'0 0.0
2018-Feb-18 23:00N 35°03' E 136°50'1 2.8
2018-Feb-18 22:30N 35°03' E 136°51'2 4.7
2018-Feb-18 22:00N 35°05' E 136°52'0 0.0
2018-Feb-18 21:28N 35°05' E 136°52'0 0.0
2018-Feb-18 20:58N 35°05' E 136°52'0 0.0
2018-Feb-18 20:28N 35°05' E 136°52'0 0.0
2018-Feb-18 19:58N 35°05' E 136°52'0 0.0
2018-Feb-18 19:28N 35°05' E 136°52'0 0.0
2018-Feb-18 18:58N 35°05' E 136°52'0 0.0
2018-Feb-18 18:28N 35°05' E 136°52'0 0.0
2018-Feb-18 17:58N 35°05' E 136°52'0 0.0
2018-Feb-18 17:28N 35°05' E 136°52'0 0.0
2018-Feb-18 16:58N 35°05' E 136°52'0 0.0
2018-Feb-18 16:28N 35°05' E 136°52'0 0.0
2018-Feb-18 15:58N 35°05' E 136°52'0 0.0
2018-Feb-18 15:28N 35°05' E 136°52'0 0.0
2018-Feb-18 14:58N 35°05' E 136°52'0 0.0
2018-Feb-18 14:28N 35°05' E 136°52'0 0.0
2018-Feb-18 13:58N 35°05' E 136°52'0 0.0
2018-Feb-18 13:28N 35°05' E 136°52'0 0.0
2018-Feb-18 12:58N 35°05' E 136°52'0 0.0
2018-Feb-18 12:28N 35°05' E 136°52'0 0.0
2018-Feb-18 11:58N 35°05' E 136°52'0 0.0
2018-Feb-18 11:28N 35°05' E 136°52'0 0.0
2018-Feb-18 10:58N 35°05' E 136°52'0 0.0
2018-Feb-18 10:28N 35°05' E 136°52'0 0.0
2018-Feb-18 09:58N 35°05' E 136°52'0 0.0
2018-Feb-18 09:28N 35°05' E 136°52'0 0.0
2018-Feb-18 08:58N 35°05' E 136°52'0 0.0
2018-Feb-18 08:28N 35°05' E 136°52'0 0.0
2018-Feb-18 07:55N 35°05' E 136°52'0 0.0
2018-Feb-18 07:28N 35°05' E 136°52'0 0.0
2018-Feb-18 06:58N 35°05' E 136°52'0 0.0
2018-Feb-18 06:28N 35°05' E 136°52'0 0.0
2018-Feb-18 05:55N 35°05' E 136°52'0 0.0
2018-Feb-18 05:28N 35°05' E 136°52'0 0.0
2018-Feb-18 04:58N 35°05' E 136°52'0 0.0
2018-Feb-18 04:28N 35°05' E 136°52'0 0.0
2018-Feb-18 03:58N 35°05' E 136°52'0 0.0
2018-Feb-18 03:28N 35°05' E 136°52'0 0.0
2018-Feb-18 02:58N 35°05' E 136°52'0 0.0
2018-Feb-18 02:28N 35°05' E 136°52'0 0.0
2018-Feb-18 01:58N 35°05' E 136°52'0 0.0
2018-Feb-18 01:28N 35°05' E 136°52'0 0.0
2018-Feb-18 00:58N 35°05' E 136°52'0 0.0
2018-Feb-18 00:28N 35°05' E 136°52'0 0.0
2018-Feb-17 23:58N 35°05' E 136°52'0 0.0
2018-Feb-17 23:28N 35°05' E 136°52'0 0.0
2018-Feb-17 22:58N 35°05' E 136°52'0 0.7
2018-Feb-17 22:30N 35°05' E 136°53'0 0.0
2018-Feb-17 22:01N 35°05' E 136°53'0 0.0
2018-Feb-17 21:31N 35°05' E 136°53'0 0.0
2018-Feb-17 20:58N 35°05' E 136°53'2 4.4
2018-Feb-17 20:30N 35°03' E 136°52'611.2
2018-Feb-17 20:00N 34°58' E 136°48'510.2
2018-Feb-17 19:30N 34°53' E 136°47'268 7.9
2018-Feb-16 09:32N 33°49' E 131°31'111.1
2018-Feb-16 09:29N 33°49' E 131°31'510.7
2018-Feb-16 09:00N 33°50' E 131°24'510.7
2018-Feb-16 08:30N 33°52' E 131°18'510.8
2018-Feb-16 08:00N 33°53' E 131°12'611.1
2018-Feb-16 07:29N 33°56' E 131°06'611.7
2018-Feb-16 07:00N 33°59' E 131°00'612.7
2018-Feb-16 06:30N 33°54' E 130°55'2 3.1
2018-Feb-16 06:00N 33°54' E 130°53'0 0.0
2018-Feb-16 05:28N 33°54' E 130°53'0 0.0
2018-Feb-16 04:49N 33°54' E 130°53'0 0.0
2018-Feb-16 04:28N 33°54' E 130°53'0 0.0
2018-Feb-16 03:58N 33°54' E 130°53'0 0.0
2018-Feb-16 03:28N 33°54' E 130°53'0 0.0
2018-Feb-16 02:58N 33°54' E 130°53'0 0.0
2018-Feb-16 02:28N 33°54' E 130°53'0 0.0
2018-Feb-16 01:58N 33°54' E 130°53'0 0.0
2018-Feb-16 01:28N 33°54' E 130°53'0 0.0
2018-Feb-16 00:58N 33°54' E 130°53'0 0.0
2018-Feb-16 00:22N 33°54' E 130°53'0 0.0
2018-Feb-15 23:55N 33°54' E 130°53'0 0.0
2018-Feb-15 23:19N 33°54' E 130°53'0 0.0
2018-Feb-15 22:58N 33°54' E 130°53'0 0.0
2018-Feb-15 22:28N 33°54' E 130°53'0 0.0
2018-Feb-15 21:58N 33°54' E 130°53'0 0.0
2018-Feb-15 21:28N 33°54' E 130°53'0 0.0
2018-Feb-15 20:58N 33°54' E 130°53'0 0.0
2018-Feb-15 20:28N 33°54' E 130°53'0 0.0
2018-Feb-15 19:58N 33°54' E 130°53'0 0.0
2018-Feb-15 19:28N 33°54' E 130°53'0 0.0
2018-Feb-15 18:58N 33°54' E 130°53'0 0.0
2018-Feb-15 18:22N 33°54' E 130°53'0 0.0
2018-Feb-15 17:58N 33°54' E 130°53'0 0.0
2018-Feb-15 17:28N 33°54' E 130°53'0 0.0
2018-Feb-15 16:52N 33°54' E 130°53'0 0.0
2018-Feb-15 16:28N 33°54' E 130°53'0 0.0
2018-Feb-15 15:58N 33°54' E 130°53'0 0.0
2018-Feb-15 15:28N 33°54' E 130°53'0 0.0
2018-Feb-15 14:58N 33°54' E 130°53'0 0.0
2018-Feb-15 14:28N 33°54' E 130°53'0 0.0
2018-Feb-15 13:58N 33°54' E 130°53'0 0.0
2018-Feb-15 13:25N 33°54' E 130°53'0 0.0
2018-Feb-15 12:55N 33°54' E 130°53'0 0.0
2018-Feb-15 12:25N 33°54' E 130°53'0 0.0
2018-Feb-15 11:55N 33°54' E 130°53'0 0.0
2018-Feb-15 11:25N 33°54' E 130°53'0 0.0
2018-Feb-15 10:55N 33°54' E 130°53'0 0.0
2018-Feb-15 10:28N 33°54' E 130°53'0 0.0
2018-Feb-15 09:58N 33°54' E 130°53'0 0.0
2018-Feb-15 09:28N 33°54' E 130°53'0 0.0
2018-Feb-15 08:55N 33°54' E 130°53'0 0.0
2018-Feb-15 08:22N 33°54' E 130°53'0 0.0
2018-Feb-15 07:58N 33°54' E 130°53'0 0.0
2018-Feb-15 07:28N 33°54' E 130°53'0 0.0
2018-Feb-15 06:58N 33°54' E 130°53'0 0.0
2018-Feb-15 06:22N 33°54' E 130°53'0 0.0
2018-Feb-15 05:58N 33°54' E 130°53'0 0.0
2018-Feb-15 05:28N 33°54' E 130°53'0 0.0
2018-Feb-15 04:52N 33°54' E 130°53'0 0.0
2018-Feb-15 04:28N 33°54' E 130°53'0 0.0
2018-Feb-15 03:58N 33°54' E 130°53'0 0.0
2018-Feb-15 03:28N 33°54' E 130°53'0 0.0
2018-Feb-15 02:58N 33°54' E 130°53'0 0.0
2018-Feb-15 02:28N 33°54' E 130°53'0 0.0
2018-Feb-15 01:55N 33°54' E 130°53'0 0.0
2018-Feb-15 01:28N 33°54' E 130°53'0 0.0
2018-Feb-15 00:55N 33°54' E 130°53'0 0.0
2018-Feb-15 00:28N 33°54' E 130°53'0 0.0
2018-Feb-14 23:58N 33°54' E 130°53'0 0.0
2018-Feb-14 23:28N 33°54' E 130°53'0 0.0
2018-Feb-14 22:58N 33°54' E 130°53'0 0.0
2018-Feb-14 22:28N 33°54' E 130°53'0 0.0
2018-Feb-14 21:58N 33°54' E 130°53'0 0.0
2018-Feb-14 21:28N 33°54' E 130°53'0 0.0
2018-Feb-14 20:58N 33°54' E 130°53'0 0.0
2018-Feb-14 20:28N 33°54' E 130°53'0 0.0
2018-Feb-14 19:58N 33°54' E 130°53'0 0.0
2018-Feb-14 19:28N 33°54' E 130°53'0 0.0
2018-Feb-14 18:58N 33°54' E 130°53'0 0.0
2018-Feb-14 18:28N 33°54' E 130°53'0 0.0
2018-Feb-14 17:58N 33°54' E 130°53'0 0.0
2018-Feb-14 17:25N 33°54' E 130°53'0 0.0
2018-Feb-14 16:58N 33°54' E 130°53'0 0.0
2018-Feb-14 16:28N 33°54' E 130°53'0 0.0
2018-Feb-14 15:58N 33°54' E 130°53'0 0.0
2018-Feb-14 15:28N 33°54' E 130°53'0 0.0
2018-Feb-14 14:55N 33°54' E 130°53'0 0.1
2018-Feb-14 14:28N 33°54' E 130°53'0 0.0
2018-Feb-14 13:58N 33°54' E 130°53'0 0.0
2018-Feb-14 13:28N 33°54' E 130°53'0 0.0
2018-Feb-14 12:58N 33°54' E 130°53'0 0.0
2018-Feb-14 12:28N 33°54' E 130°53'0 0.0
2018-Feb-14 11:58N 33°54' E 130°53'0 0.0
2018-Feb-14 11:28N 33°54' E 130°53'0 0.0
2018-Feb-14 10:58N 33°54' E 130°53'0 0.1
2018-Feb-14 10:28N 33°54' E 130°53'0 0.0
2018-Feb-14 09:58N 33°54' E 130°53'0 0.1
2018-Feb-14 09:28N 33°54' E 130°53'0 0.0
2018-Feb-14 08:58N 33°54' E 130°53'  

Dump ship's entire track history